sensor_id;sensor_type;location;lat;lon;timestamp;pressure;altitude;pressure_sealevel;temperature;humidity
70314;BME280;57725;47.526;18.986;2023-04-05T00:01:52;100100.97;;;9.20;89.05
70314;BME280;57725;47.526;18.986;2023-04-05T00:04:17;100100.97;;;9.20;88.77
70314;BME280;57725;47.526;18.986;2023-04-05T00:06:48;100101.84;;;9.20;89.34
70314;BME280;57725;47.526;18.986;2023-04-05T00:09:18;100093.19;;;9.18;89.03
70314;BME280;57725;47.526;18.986;2023-04-05T00:11:46;100096.66;;;9.19;89.11
70314;BME280;57725;47.526;18.986;2023-04-05T00:14:14;100091.53;;;9.16;89.38
70314;BME280;57725;47.526;18.986;2023-04-05T00:16:40;100089.78;;;9.16;88.88
70314;BME280;57725;47.526;18.986;2023-04-05T00:19:05;100093.25;;;9.17;89.51
70314;BME280;57725;47.526;18.986;2023-04-05T00:21:33;100089.84;;;9.15;89.24
70314;BME280;57725;47.526;18.986;2023-04-05T00:23:59;100088.97;;;9.14;89.56
70314;BME280;57725;47.526;18.986;2023-04-05T00:26:27;100080.34;;;9.12;89.36
70314;BME280;57725;47.526;18.986;2023-04-05T00:28:55;100080.28;;;9.14;89.51
70314;BME280;57725;47.526;18.986;2023-04-05T00:31:20;100084.66;;;9.13;89.32
70314;BME280;57725;47.526;18.986;2023-04-05T00:33:46;100082.94;;;9.12;89.05
70314;BME280;57725;47.526;18.986;2023-04-05T00:36:13;100080.44;;;9.11;89.46
70314;BME280;57725;47.526;18.986;2023-04-05T00:38:39;100081.28;;;9.11;89.29
70314;BME280;57725;47.526;18.986;2023-04-05T00:41:11;100082.19;;;9.10;89.21
70314;BME280;57725;47.526;18.986;2023-04-05T00:43:39;100088.28;;;9.09;88.82
70314;BME280;57725;47.526;18.986;2023-04-05T00:46:05;100083.97;;;9.08;89.32
70314;BME280;57725;47.526;18.986;2023-04-05T00:48:32;100082.22;;;9.08;89.62
70314;BME280;57725;47.526;18.986;2023-04-05T00:50:57;100081.47;;;9.05;89.17
70314;BME280;57725;47.526;18.986;2023-04-05T00:53:26;100079.72;;;9.05;89.13
70314;BME280;57725;47.526;18.986;2023-04-05T00:55:52;100083.19;;;9.06;89.46
70314;BME280;57725;47.526;18.986;2023-04-05T00:58:18;100084.06;;;9.05;89.35
70314;BME280;57725;47.526;18.986;2023-04-05T01:01:12;100084.94;;;9.05;89.57
70314;BME280;57725;47.526;18.986;2023-04-05T01:03:44;100079.75;;;9.04;89.90
70314;BME280;57725;47.526;18.986;2023-04-05T01:09:01;100084.13;;;9.03;89.28
70314;BME280;57725;47.526;18.986;2023-04-05T01:11:30;100080.69;;;9.01;89.43
70314;BME280;57725;47.526;18.986;2023-04-05T01:14:00;100068.56;;;9.00;89.84
70314;BME280;57725;47.526;18.986;2023-04-05T01:16:26;100072.94;;;9.00;89.65
70314;BME280;57725;47.526;18.986;2023-04-05T01:18:53;100075.53;;;9.00;89.68
70314;BME280;57725;47.526;18.986;2023-04-05T01:35:11;100073.94;;;8.96;89.66
70314;BME280;57725;47.526;18.986;2023-04-05T01:37:39;100072.28;;;8.93;89.90
70314;BME280;57725;47.526;18.986;2023-04-05T01:40:05;100061.88;;;8.93;89.36
70314;BME280;57725;47.526;18.986;2023-04-05T01:42:32;100065.41;;;8.91;89.73
70314;BME280;57725;47.526;18.986;2023-04-05T01:44:58;100070.59;;;8.92;89.86
70314;BME280;57725;47.526;18.986;2023-04-05T01:47:25;100062.81;;;8.91;89.67
70314;BME280;57725;47.526;18.986;2023-04-05T01:49:51;100065.41;;;8.91;89.52
70314;BME280;57725;47.526;18.986;2023-04-05T01:52:16;100068.06;;;8.89;89.45
70314;BME280;57725;47.526;18.986;2023-04-05T01:54:41;100068.06;;;8.89;89.36
70314;BME280;57725;47.526;18.986;2023-04-05T01:57:09;100064.59;;;8.89;89.43
70314;BME280;57725;47.526;18.986;2023-04-05T01:59:37;100072.44;;;8.89;89.59
70314;BME280;57725;47.526;18.986;2023-04-05T02:02:05;100069.91;;;8.87;89.57
70314;BME280;57725;47.526;18.986;2023-04-05T02:04:33;100071.66;;;8.87;89.88
70314;BME280;57725;47.526;18.986;2023-04-05T02:06:58;100065.59;;;8.86;89.30
70314;BME280;57725;47.526;18.986;2023-04-05T02:09:33;100062.16;;;8.84;89.70
70314;BME280;57725;47.526;18.986;2023-04-05T02:11:58;100065.63;;;8.85;89.83
70314;BME280;57725;47.526;18.986;2023-04-05T02:14:30;100063.03;;;8.85;89.64
70314;BME280;57725;47.526;18.986;2023-04-05T02:16:55;100062.22;;;8.83;89.68
70314;BME280;57725;47.526;18.986;2023-04-05T02:19:24;100069.19;;;8.82;89.72
70314;BME280;57725;47.526;18.986;2023-04-05T02:21:54;100060.56;;;8.80;89.90
70314;BME280;57725;47.526;18.986;2023-04-05T02:24:21;100057.03;;;8.81;89.71
70314;BME280;57725;47.526;18.986;2023-04-05T02:26:49;100058.81;;;8.81;89.86
70314;BME280;57725;47.526;18.986;2023-04-05T02:29:15;100054.47;;;8.80;89.67
70314;BME280;57725;47.526;18.986;2023-04-05T02:31:40;100059.75;;;8.78;89.90
70314;BME280;57725;47.526;18.986;2023-04-05T02:34:12;100058.88;;;8.78;89.81
70314;BME280;57725;47.526;18.986;2023-04-05T02:36:50;100058.88;;;8.78;89.79
70314;BME280;57725;47.526;18.986;2023-04-05T02:39:16;100058.97;;;8.76;89.52
70314;BME280;57725;47.526;18.986;2023-04-05T02:41:45;100054.66;;;8.75;89.62
70314;BME280;57725;47.526;18.986;2023-04-05T02:44:11;100055.50;;;8.76;89.85
70314;BME280;57725;47.526;18.986;2023-04-05T02:46:37;100053.75;;;8.76;89.99
70314;BME280;57725;47.526;18.986;2023-04-05T02:49:02;100057.25;;;8.75;89.84
70314;BME280;57725;47.526;18.986;2023-04-05T02:51:30;100049.50;;;8.74;89.85
70314;BME280;57725;47.526;18.986;2023-04-05T02:54:01;100052.09;;;8.74;89.89
70314;BME280;57725;47.526;18.986;2023-04-05T02:56:26;100048.63;;;8.73;89.93
70314;BME280;57725;47.526;18.986;2023-04-05T02:58:52;100044.31;;;8.72;89.76
70314;BME280;57725;47.526;18.986;2023-04-05T03:01:19;100052.22;;;8.69;89.78
70314;BME280;57725;47.526;18.986;2023-04-05T03:03:46;100041.81;;;8.69;89.66
70314;BME280;57725;47.526;18.986;2023-04-05T03:06:12;100042.66;;;8.69;89.79
70314;BME280;57725;47.526;18.986;2023-04-05T03:08:41;100051.38;;;8.68;89.82
70314;BME280;57725;47.526;18.986;2023-04-05T03:11:13;100051.38;;;8.68;89.70
70314;BME280;57725;47.526;18.986;2023-04-05T03:13:41;100049.66;;;8.67;89.86
70314;BME280;57725;47.526;18.986;2023-04-05T03:16:09;100049.66;;;8.67;89.77
70314;BME280;57725;47.526;18.986;2023-04-05T03:18:34;100054.06;;;8.65;89.82
70314;BME280;57725;47.526;18.986;2023-04-05T03:21:02;100052.41;;;8.64;89.72
70314;BME280;57725;47.526;18.986;2023-04-05T03:23:33;100052.41;;;8.64;89.60
70314;BME280;57725;47.526;18.986;2023-04-05T03:26:00;100053.34;;;8.62;89.78
70314;BME280;57725;47.526;18.986;2023-04-05T03:28:29;100056.75;;;8.64;89.32
70314;BME280;57725;47.526;18.986;2023-04-05T03:30:57;100065.44;;;8.64;89.59
70314;BME280;57725;47.526;18.986;2023-04-05T03:33:23;100054.19;;;8.62;89.75
70314;BME280;57725;47.526;18.986;2023-04-05T03:35:48;100061.16;;;8.62;89.67
70314;BME280;57725;47.526;18.986;2023-04-05T03:38:16;100061.16;;;8.62;89.62
70314;BME280;57725;47.526;18.986;2023-04-05T03:40:42;100060.34;;;8.60;89.82
70314;BME280;57725;47.526;18.986;2023-04-05T03:43:07;100071.63;;;8.60;89.88
70314;BME280;57725;47.526;18.986;2023-04-05T03:45:33;100065.56;;;8.60;89.78
70314;BME280;57725;47.526;18.986;2023-04-05T03:48:03;100065.59;;;8.58;89.61
70314;BME280;57725;47.526;18.986;2023-04-05T03:50:29;100063.03;;;8.57;89.92
70314;BME280;57725;47.526;18.986;2023-04-05T03:52:54;100082.13;;;8.57;89.90
70314;BME280;57725;47.526;18.986;2023-04-05T03:55:22;100071.81;;;8.54;89.63
70314;BME280;57725;47.526;18.986;2023-04-05T03:57:50;100076.13;;;8.55;89.56
70314;BME280;57725;47.526;18.986;2023-04-05T04:00:19;100066.66;;;8.53;89.33
70314;BME280;57725;47.526;18.986;2023-04-05T04:02:48;100070.13;;;8.53;89.68
70314;BME280;57725;47.526;18.986;2023-04-05T04:05:16;100077.00;;;8.54;89.49
70314;BME280;57725;47.526;18.986;2023-04-05T04:07:43;100082.31;;;8.53;89.90
70314;BME280;57725;47.526;18.986;2023-04-05T04:10:10;100082.31;;;8.53;89.68
70314;BME280;57725;47.526;18.986;2023-04-05T04:12:36;100077.13;;;8.51;89.93
70314;BME280;57725;47.526;18.986;2023-04-05T04:15:05;100078.03;;;8.50;89.50
70314;BME280;57725;47.526;18.986;2023-04-05T04:17:34;100078.03;;;8.50;89.68
70314;BME280;57725;47.526;18.986;2023-04-05T04:20:00;100084.09;;;8.51;89.69
70314;BME280;57725;47.526;18.986;2023-04-05T04:22:26;100078.94;;;8.49;89.49
70314;BME280;57725;47.526;18.986;2023-04-05T04:25:01;100078.97;;;8.48;89.90
70314;BME280;57725;47.526;18.986;2023-04-05T04:27:29;100089.41;;;8.48;89.80
70314;BME280;57725;47.526;18.986;2023-04-05T04:29:56;100088.53;;;8.47;89.87
70314;BME280;57725;47.526;18.986;2023-04-05T04:32:27;100080.72;;;8.47;90.02
70314;BME280;57725;47.526;18.986;2023-04-05T04:35:16;100087.72;;;8.45;89.87
70314;BME280;57725;47.526;18.986;2023-04-05T04:42:52;100094.69;;;8.45;89.44
70314;BME280;57725;47.526;18.986;2023-04-05T04:45:18;100093.88;;;8.43;89.52
70314;BME280;57725;47.526;18.986;2023-04-05T04:47:47;100082.63;;;8.42;89.57
70314;BME280;57725;47.526;18.986;2023-04-05T04:50:15;100091.28;;;8.43;89.49
70314;BME280;57725;47.526;18.986;2023-04-05T04:52:41;100086.13;;;8.41;89.24
70314;BME280;57725;47.526;18.986;2023-04-05T04:55:10;100094.81;;;8.42;89.64
70314;BME280;57725;47.526;18.986;2023-04-05T04:57:41;100092.19;;;8.42;89.82
70314;BME280;57725;47.526;18.986;2023-04-05T05:00:10;100097.44;;;8.40;89.63
70314;BME280;57725;47.526;18.986;2023-04-05T05:02:41;100093.19;;;8.38;89.51
70314;BME280;57725;47.526;18.986;2023-04-05T05:05:08;100094.88;;;8.39;89.59
70314;BME280;57725;47.526;18.986;2023-04-05T05:07:34;100101.00;;;8.38;89.58
70314;BME280;57725;47.526;18.986;2023-04-05T05:10:01;100099.28;;;8.37;89.68
70314;BME280;57725;47.526;18.986;2023-04-05T05:12:26;100093.22;;;8.36;89.85
70314;BME280;57725;47.526;18.986;2023-04-05T05:14:55;100099.28;;;8.37;89.88
70314;BME280;57725;47.526;18.986;2023-04-05T05:17:23;100100.19;;;8.35;89.64
70314;BME280;57725;47.526;18.986;2023-04-05T05:19:51;100097.63;;;8.34;89.91
70314;BME280;57725;47.526;18.986;2023-04-05T05:22:17;100108.91;;;8.34;89.72
70314;BME280;57725;47.526;18.986;2023-04-05T05:24:46;100106.34;;;8.33;89.90
70314;BME280;57725;47.526;18.986;2023-04-05T05:27:12;100107.22;;;8.32;89.63
70314;BME280;57725;47.526;18.986;2023-04-05T05:29:40;100115.03;;;8.32;89.85
70314;BME280;57725;47.526;18.986;2023-04-05T05:32:10;100108.09;;;8.31;89.73
70314;BME280;57725;47.526;18.986;2023-04-05T05:34:40;100106.41;;;8.30;89.73
70314;BME280;57725;47.526;18.986;2023-04-05T05:37:07;100110.69;;;8.31;89.54
70314;BME280;57725;47.526;18.986;2023-04-05T05:39:34;100109.88;;;8.30;89.83
70314;BME280;57725;47.526;18.986;2023-04-05T05:42:03;100108.09;;;8.31;89.91
70314;BME280;57725;47.526;18.986;2023-04-05T05:44:29;100100.34;;;8.29;89.59
70314;BME280;57725;47.526;18.986;2023-04-05T05:46:57;100109.88;;;8.30;89.70
70314;BME280;57725;47.526;18.986;2023-04-05T05:49:23;100096.03;;;8.28;89.79
70314;BME280;57725;47.526;18.986;2023-04-05T05:51:51;100101.25;;;8.28;89.88
70314;BME280;57725;47.526;18.986;2023-04-05T05:54:17;100105.59;;;8.28;89.87
70314;BME280;57725;47.526;18.986;2023-04-05T05:56:42;100099.53;;;8.27;89.99
70314;BME280;57725;47.526;18.986;2023-04-05T05:59:08;100100.44;;;8.26;89.57
70314;BME280;57725;47.526;18.986;2023-04-05T06:01:33;100102.19;;;8.26;89.67
70314;BME280;57725;47.526;18.986;2023-04-05T06:04:03;100102.16;;;8.27;89.94
70314;BME280;57725;47.526;18.986;2023-04-05T06:06:28;100101.31;;;8.25;89.74
70314;BME280;57725;47.526;18.986;2023-04-05T06:08:54;100103.94;;;8.25;89.95
70314;BME280;57725;47.526;18.986;2023-04-05T06:11:20;100106.53;;;8.25;89.79
70314;BME280;57725;47.526;18.986;2023-04-05T06:13:49;100096.97;;;8.26;89.88
70314;BME280;57725;47.526;18.986;2023-04-05T06:16:20;100100.44;;;8.26;89.70
70314;BME280;57725;47.526;18.986;2023-04-05T06:18:46;100107.38;;;8.26;89.77
70314;BME280;57725;47.526;18.986;2023-04-05T06:21:14;100100.41;;;8.28;89.93
70314;BME280;57725;47.526;18.986;2023-04-05T06:23:40;100100.34;;;8.29;90.00
70314;BME280;57725;47.526;18.986;2023-04-05T06:26:07;100102.97;;;8.29;89.99
70314;BME280;57725;47.526;18.986;2023-04-05T06:28:34;100108.09;;;8.31;90.25
70314;BME280;57725;47.526;18.986;2023-04-05T06:31:02;100100.28;;;8.31;90.13
70314;BME280;57725;47.526;18.986;2023-04-05T06:33:30;100111.59;;;8.31;90.35
70314;BME280;57725;47.526;18.986;2023-04-05T06:35:56;100102.03;;;8.32;90.48
70314;BME280;57725;47.526;18.986;2023-04-05T06:38:21;100104.63;;;8.32;90.55
70314;BME280;57725;47.526;18.986;2023-04-05T06:40:47;100106.34;;;8.33;90.75
70314;BME280;57725;47.526;18.986;2023-04-05T06:43:12;100111.53;;;8.33;90.89
70314;BME280;57725;47.526;18.986;2023-04-05T06:45:37;100108.09;;;8.32;90.89
70314;BME280;57725;47.526;18.986;2023-04-05T06:48:05;100106.47;;;8.28;90.70
70314;BME280;57725;47.526;18.986;2023-04-05T06:50:33;100115.00;;;8.33;91.03
70314;BME280;57725;47.526;18.986;2023-04-05T06:52:59;100110.69;;;8.32;91.03
70314;BME280;57725;47.526;18.986;2023-04-05T06:55:24;100109.84;;;8.32;91.05
70314;BME280;57725;47.526;18.986;2023-04-05T06:57:53;100108.09;;;8.32;91.09
70314;BME280;57725;47.526;18.986;2023-04-05T07:00:19;100103.72;;;8.33;91.14
70314;BME280;57725;47.526;18.986;2023-04-05T07:02:47;100104.53;;;8.35;91.61
70314;BME280;57725;47.526;18.986;2023-04-05T07:05:12;100101.13;;;8.33;91.19
70314;BME280;57725;47.526;18.986;2023-04-05T07:07:43;100102.84;;;8.34;91.02
70314;BME280;57725;47.526;18.986;2023-04-05T07:10:10;100104.53;;;8.35;91.00
70314;BME280;57725;47.526;18.986;2023-04-05T07:12:38;100114.06;;;8.36;90.83
70314;BME280;57725;47.526;18.986;2023-04-05T07:15:04;100104.59;;;8.33;90.72
70314;BME280;57725;47.526;18.986;2023-04-05T07:17:30;100114.06;;;8.36;91.04
70314;BME280;57725;47.526;18.986;2023-04-05T07:19:56;100108.00;;;8.35;91.11
70314;BME280;57725;47.526;18.986;2023-04-05T07:22:21;100109.72;;;8.37;90.77
70314;BME280;57725;47.526;18.986;2023-04-05T07:24:46;100101.94;;;8.35;90.71
70314;BME280;57725;47.526;18.986;2023-04-05T07:27:13;100108.84;;;8.36;90.71
70314;BME280;57725;47.526;18.986;2023-04-05T07:29:41;100108.84;;;8.36;90.85
70314;BME280;57725;47.526;18.986;2023-04-05T07:32:08;100102.88;;;8.32;90.58
70314;BME280;57725;47.526;18.986;2023-04-05T07:34:36;100102.78;;;8.35;90.72
70314;BME280;57725;47.526;18.986;2023-04-05T07:37:04;100103.69;;;8.34;90.87
70314;BME280;57725;47.526;18.986;2023-04-05T07:39:30;100100.22;;;8.34;90.78
70314;BME280;57725;47.526;18.986;2023-04-05T07:41:56;100097.63;;;8.34;90.61
70314;BME280;57725;47.526;18.986;2023-04-05T07:44:21;100104.53;;;8.35;90.68
70314;BME280;57725;47.526;18.986;2023-04-05T07:46:49;100098.53;;;8.33;90.44
70314;BME280;57725;47.526;18.986;2023-04-05T07:49:17;100091.56;;;8.33;90.41
70314;BME280;57725;47.526;18.986;2023-04-05T07:51:42;100095.91;;;8.33;90.46
70314;BME280;57725;47.526;18.986;2023-04-05T07:54:14;100095.06;;;8.32;90.46
70314;BME280;57725;47.526;18.986;2023-04-05T07:56:39;100099.38;;;8.33;90.16
70314;BME280;57725;47.526;18.986;2023-04-05T07:59:05;100094.16;;;8.33;90.38
70314;BME280;57725;47.526;18.986;2023-04-05T08:01:31;100099.38;;;8.33;90.17
70314;BME280;57725;47.526;18.986;2023-04-05T08:03:58;100093.31;;;8.33;90.31
70314;BME280;57725;47.526;18.986;2023-04-05T08:06:26;100084.63;;;8.32;90.21
70314;BME280;57725;47.526;18.986;2023-04-05T08:08:52;100093.31;;;8.33;90.32
70314;BME280;57725;47.526;18.986;2023-04-05T08:11:17;100090.69;;;8.33;90.32
70314;BME280;57725;47.526;18.986;2023-04-05T08:13:45;100094.16;;;8.33;90.38
70314;BME280;57725;47.526;18.986;2023-04-05T08:16:10;100088.13;;;8.31;90.25
70314;BME280;57725;47.526;18.986;2023-04-05T08:18:36;100089.81;;;8.34;90.15
70314;BME280;57725;47.526;18.986;2023-04-05T08:21:04;100090.69;;;8.33;90.38
70314;BME280;57725;47.526;18.986;2023-04-05T08:23:32;100087.25;;;8.32;90.21
70314;BME280;57725;47.526;18.986;2023-04-05T08:25:57;100087.25;;;8.32;90.13
70314;BME280;57725;47.526;18.986;2023-04-05T08:28:25;100082.88;;;8.33;90.12
70314;BME280;57725;47.526;18.986;2023-04-05T08:30:54;100081.19;;;8.32;90.23
70314;BME280;57725;47.526;18.986;2023-04-05T08:33:21;100088.94;;;8.33;90.27
70314;BME280;57725;47.526;18.986;2023-04-05T08:35:50;100089.84;;;8.32;90.27
70314;BME280;57725;47.526;18.986;2023-04-05T08:38:16;100088.94;;;8.33;90.45
70314;BME280;57725;47.526;18.986;2023-04-05T08:40:43;100082.88;;;8.33;90.29
70314;BME280;57725;47.526;18.986;2023-04-05T08:45:51;100085.50;;;8.33;90.07
70314;BME280;57725;47.526;18.986;2023-04-05T08:48:19;100083.78;;;8.32;90.34
70314;BME280;57725;47.526;18.986;2023-04-05T08:50:52;100077.69;;;8.33;90.25
70314;BME280;57725;47.526;18.986;2023-04-05T08:53:21;100080.28;;;8.33;90.14
70314;BME280;57725;47.526;18.986;2023-04-05T08:55:50;100078.53;;;8.33;90.16
70314;BME280;57725;47.526;18.986;2023-04-05T08:58:16;100079.38;;;8.34;90.41
70314;BME280;57725;47.526;18.986;2023-04-05T09:00:42;100078.53;;;8.33;90.30
70314;BME280;57725;47.526;18.986;2023-04-05T09:03:13;100083.75;;;8.33;90.20
70314;BME280;57725;47.526;18.986;2023-04-05T09:05:45;100082.88;;;8.33;90.04
70314;BME280;57725;47.526;18.986;2023-04-05T09:08:12;100083.69;;;8.35;90.08
70314;BME280;57725;47.526;18.986;2023-04-05T09:10:40;100075.94;;;8.33;90.26
70314;BME280;57725;47.526;18.986;2023-04-05T09:13:06;100073.31;;;8.33;90.35
70314;BME280;57725;47.526;18.986;2023-04-05T09:15:34;100070.69;;;8.35;90.04
70314;BME280;57725;47.526;18.986;2023-04-05T09:18:00;100075.88;;;8.35;90.26
70314;BME280;57725;47.526;18.986;2023-04-05T09:20:26;100076.75;;;8.35;90.19
70314;BME280;57725;47.526;18.986;2023-04-05T09:22:54;100070.69;;;8.35;90.35
70314;BME280;57725;47.526;18.986;2023-04-05T09:25:40;100076.75;;;8.35;90.32
70314;BME280;57725;47.526;18.986;2023-04-05T09:28:07;100075.88;;;8.35;90.28
70314;BME280;57725;47.526;18.986;2023-04-05T09:30:33;100076.75;;;8.35;90.37
70314;BME280;57725;47.526;18.986;2023-04-05T09:32:59;100070.63;;;8.37;90.02
70314;BME280;57725;47.526;18.986;2023-04-05T09:35:26;100068.94;;;8.35;90.38
70314;BME280;57725;47.526;18.986;2023-04-05T09:38:00;100061.09;;;8.35;90.30
70314;BME280;57725;47.526;18.986;2023-04-05T09:40:48;100060.22;;;8.37;90.07
70314;BME280;57725;47.526;18.986;2023-04-05T09:43:34;100054.16;;;8.36;90.10
70314;BME280;57725;47.526;18.986;2023-04-05T09:46:00;100062.81;;;8.37;90.02
70314;BME280;57725;47.526;18.986;2023-04-05T09:48:48;100061.91;;;8.38;90.09
70314;BME280;57725;47.526;18.986;2023-04-05T09:51:15;100054.09;;;8.38;90.18
70314;BME280;57725;47.526;18.986;2023-04-05T09:54:07;100043.69;;;8.38;90.34
70314;BME280;57725;47.526;18.986;2023-04-05T09:56:35;100045.41;;;8.39;90.17
70314;BME280;57725;47.526;18.986;2023-04-05T09:59:05;100038.44;;;8.39;90.30
70314;BME280;57725;47.526;18.986;2023-04-05T10:01:31;100035.00;;;8.37;90.15
70314;BME280;57725;47.526;18.986;2023-04-05T10:04:00;100042.78;;;8.39;90.14
70314;BME280;57725;47.526;18.986;2023-04-05T10:06:41;100039.28;;;8.40;90.15
70314;BME280;57725;47.526;18.986;2023-04-05T10:09:10;100037.53;;;8.40;90.39
70314;BME280;57725;47.526;18.986;2023-04-05T10:11:41;100049.66;;;8.41;90.00
70314;BME280;57725;47.526;18.986;2023-04-05T10:14:13;100052.31;;;8.40;89.09
70314;BME280;57725;47.526;18.986;2023-04-05T10:16:56;100040.19;;;8.39;89.23
70314;BME280;57725;47.526;18.986;2023-04-05T10:19:28;100039.25;;;8.41;89.24
70314;BME280;57725;47.526;18.986;2023-04-05T10:22:01;100037.50;;;8.42;89.33
70314;BME280;57725;47.526;18.986;2023-04-05T10:24:39;100032.28;;;8.42;89.51
70314;BME280;57725;47.526;18.986;2023-04-05T10:27:29;100030.53;;;8.42;89.45
70314;BME280;57725;47.526;18.986;2023-04-05T10:38:19;100018.28;;;8.44;89.65
70314;BME280;57725;47.526;18.986;2023-04-05T10:40:46;100019.19;;;8.43;89.85
70314;BME280;57725;47.526;18.986;2023-04-05T10:43:19;100014.78;;;8.45;89.96
70314;BME280;57725;47.526;18.986;2023-04-05T10:45:47;100029.56;;;8.45;89.70
70314;BME280;57725;47.526;18.986;2023-04-05T10:51:11;100018.78;;;8.55;83.15
70314;BME280;57725;47.526;18.986;2023-04-05T10:53:37;100016.19;;;8.55;79.06
70314;BME280;57725;47.526;18.986;2023-04-05T10:56:03;100009.25;;;8.54;76.32
70314;BME280;57725;47.526;18.986;2023-04-05T10:58:30;100011.09;;;8.52;74.85
70314;BME280;57725;47.526;18.986;2023-04-05T11:00:56;100006.81;;;8.50;75.05
70314;BME280;57725;47.526;18.986;2023-04-05T11:08:42;100007.34;;;8.33;73.48
70314;BME280;57725;47.526;18.986;2023-04-05T11:11:09;100000.47;;;8.30;72.73
70314;BME280;57725;47.526;18.986;2023-04-05T11:13:49;100002.19;;;8.31;74.13
70314;BME280;57725;47.526;18.986;2023-04-05T11:16:19;100000.59;;;8.26;72.25
70314;BME280;57725;47.526;18.986;2023-04-05T11:18:49;99996.22;;;8.28;73.00
70314;BME280;57725;47.526;18.986;2023-04-05T11:21:24;100003.25;;;8.24;68.85
70314;BME280;57725;47.526;18.986;2023-04-05T11:24:01;99998.03;;;8.24;70.65
70314;BME280;57725;47.526;18.986;2023-04-05T11:26:51;99999.78;;;8.24;69.85
70314;BME280;57725;47.526;18.986;2023-04-05T11:29:19;99994.59;;;8.24;69.21
70314;BME280;57725;47.526;18.986;2023-04-05T11:32:11;99993.72;;;8.23;69.62
70314;BME280;57725;47.526;18.986;2023-04-05T11:34:36;99992.03;;;8.22;68.65
70314;BME280;57725;47.526;18.986;2023-04-05T11:37:02;99985.09;;;8.21;68.12
70314;BME280;57725;47.526;18.986;2023-04-05T11:39:30;99994.53;;;8.25;70.87
70314;BME280;57725;47.526;18.986;2023-04-05T11:44:27;99985.88;;;8.25;69.06
70314;BME280;57725;47.526;18.986;2023-04-05T11:46:56;99984.16;;;8.24;67.41
70314;BME280;57725;47.526;18.986;2023-04-05T11:49:22;99988.44;;;8.26;68.48
70314;BME280;57725;47.526;18.986;2023-04-05T11:51:52;99981.47;;;8.27;67.56
70314;BME280;57725;47.526;18.986;2023-04-05T11:54:47;99977.97;;;8.28;68.04
70314;BME280;57725;47.526;18.986;2023-04-05T11:57:23;99966.66;;;8.29;67.16
70314;BME280;57725;47.526;18.986;2023-04-05T11:59:52;99963.19;;;8.28;66.81
70314;BME280;57725;47.526;18.986;2023-04-05T12:02:18;99957.13;;;8.28;65.59
70314;BME280;57725;47.526;18.986;2023-04-05T12:04:56;99954.56;;;8.26;65.24
70314;BME280;57725;47.526;18.986;2023-04-05T12:07:26;99965.00;;;8.26;63.39
70314;BME280;57725;47.526;18.986;2023-04-05T12:10:08;99954.56;;;8.26;66.87
70314;BME280;57725;47.526;18.986;2023-04-05T12:12:40;99961.44;;;8.29;64.83
70314;BME280;57725;47.526;18.986;2023-04-05T12:15:14;99957.94;;;8.30;65.17
70314;BME280;57725;47.526;18.986;2023-04-05T12:17:44;99949.28;;;8.29;66.42
70314;BME280;57725;47.526;18.986;2023-04-05T12:20:24;99942.31;;;8.30;65.07
70314;BME280;57725;47.526;18.986;2023-04-05T12:22:54;99937.16;;;8.28;64.67
70314;BME280;57725;47.526;18.986;2023-04-05T12:25:23;99944.00;;;8.31;63.35
70314;BME280;57725;47.526;18.986;2023-04-05T12:27:51;99940.59;;;8.29;64.94
70314;BME280;57725;47.526;18.986;2023-04-05T12:30:19;99939.75;;;8.28;65.60
70314;BME280;57725;47.526;18.986;2023-04-05T12:32:45;99942.34;;;8.28;64.40
70314;BME280;57725;47.526;18.986;2023-04-05T12:35:15;99936.28;;;8.28;64.62
70314;BME280;57725;47.526;18.986;2023-04-05T12:37:44;99935.44;;;8.27;63.27
70314;BME280;57725;47.526;18.986;2023-04-05T12:40:11;99938.78;;;8.31;67.22
70314;BME280;57725;47.526;18.986;2023-04-05T12:42:44;99933.69;;;8.28;64.07
70314;BME280;57725;47.526;18.986;2023-04-05T12:45:11;99936.34;;;8.26;61.36
70314;BME280;57725;47.526;18.986;2023-04-05T12:47:52;99932.00;;;8.27;63.45
70314;BME280;57725;47.526;18.986;2023-04-05T12:50:30;99935.44;;;8.27;64.00
70314;BME280;57725;47.526;18.986;2023-04-05T12:53:05;99940.66;;;8.27;62.29
70314;BME280;57725;47.526;18.986;2023-04-05T12:55:42;99924.13;;;8.28;63.61
70314;BME280;57725;47.526;18.986;2023-04-05T12:58:08;99922.38;;;8.29;60.43
70314;BME280;57725;47.526;18.986;2023-04-05T13:00:34;99927.53;;;8.30;55.21
70314;BME280;57725;47.526;18.986;2023-04-05T13:03:02;99920.53;;;8.31;53.71
70314;BME280;57725;47.526;18.986;2023-04-05T13:05:32;99928.34;;;8.32;53.28
70314;BME280;57725;47.526;18.986;2023-04-05T13:07:59;99921.34;;;8.34;52.63
70314;BME280;57725;47.526;18.986;2023-04-05T13:10:27;99920.44;;;8.35;55.00
70314;BME280;57725;47.526;18.986;2023-04-05T13:12:55;99913.53;;;8.34;52.69
70314;BME280;57725;47.526;18.986;2023-04-05T13:15:23;99911.88;;;8.32;52.24
70314;BME280;57725;47.526;18.986;2023-04-05T13:17:50;99903.19;;;8.31;52.76
70314;BME280;57725;47.526;18.986;2023-04-05T13:20:17;99910.97;;;8.33;51.99
70314;BME280;57725;47.526;18.986;2023-04-05T13:22:43;99900.56;;;8.33;54.49
70314;BME280;57725;47.526;18.986;2023-04-05T13:25:08;99903.19;;;8.31;52.06
70314;BME280;57725;47.526;18.986;2023-04-05T13:27:36;99904.09;;;8.30;53.57
70314;BME280;57725;47.526;18.986;2023-04-05T13:30:02;99906.69;;;8.30;52.39
70314;BME280;57725;47.526;18.986;2023-04-05T13:32:28;99904.91;;;8.31;50.61
70314;BME280;57725;47.526;18.986;2023-04-05T13:34:53;99908.38;;;8.33;52.33
70314;BME280;57725;47.526;18.986;2023-04-05T13:37:18;99905.72;;;8.34;52.07
70314;BME280;57725;47.526;18.986;2023-04-05T13:39:44;99897.91;;;8.34;51.84
70314;BME280;57725;47.526;18.986;2023-04-05T13:42:12;99892.69;;;8.34;51.26
70314;BME280;57725;47.526;18.986;2023-04-05T13:44:37;99898.69;;;8.37;50.60